This is the latest recevied weather packets stored in our database for station/object CE4ERM-13. If no packets are shown the sender has not sent any weather packets the latest 10 day(s).
| Time | Temp. | Humidity | Pressure | Rain* | Wind** | Luminosity | Snow |
|---|---|---|---|---|---|---|---|
| 1777979299 | 21.11° C | 36% | 1017.2 hPa | - | - | - | - |
| 1777978698 | 21.67° C | 36% | 1017.5 hPa | - | - | - | - |
| 1777978286 | 18.89° C | 41% | 1018.9 hPa | - | - | - | - |
| 1777978098 | 22.22° C | 35% | 1015.9 hPa | - | - | - | - |
| 1777977686 | 18.89° C | 41% | 1014.4 hPa | - | - | - | - |
| 1777977497 | 21.67° C | 35% | 1017.6 hPa | - | - | - | - |
| 1777976897 | 21.67° C | 36% | 1017.4 hPa | - | - | - | - |
| 1777975697 | 21.67° C | 35% | 1015.7 hPa | - | - | - | - |
| 1777975097 | 21.67° C | 35% | 1018 hPa | - | - | - | - |
| 1777974497 | 21.11° C | 35% | 1017 hPa | - | - | - | - |
| 1777974086 | 18.33° C | 39% | 1017.9 hPa | - | - | - | - |
| 1777973897 | 21.11° C | 35% | 1015.5 hPa | - | - | - | - |
| 1777973295 | 21.67° C | 35% | 1015.7 hPa | - | - | - | - |
| 1777972286 | 18.89° C | 38% | 1016.6 hPa | - | - | - | - |
| 1777971494 | 21.11° C | 36% | 1016.2 hPa | - | - | - | - |
| 1777971085 | 18.89° C | 38% | 1015.5 hPa | - | - | - | - |
| 1777970486 | 18.89° C | 38% | 1017.2 hPa | - | - | - | - |
| 1777970294 | 20.56° C | 37% | 1016.9 hPa | - | - | - | - |
| 1777969093 | 20.56° C | 37% | 1012.8 hPa | - | - | - | - |
| 1777968686 | 18.89° C | 37% | 1012.5 hPa | - | - | - | - |
| 1777968493 | 21.11° C | 36% | 1015.1 hPa | - | - | - | - |
| 1777967893 | 21.11° C | 36% | 1014 hPa | - | - | - | - |
| 1777967485 | 18.89° C | 38% | 1015 hPa | - | - | - | - |
| 1777967293 | 21.11° C | 36% | 1015.2 hPa | - | - | - | - |
| 1777966933 | 18.89° C | 37% | 1016.8 hPa | - | - | - | - |
* Rain since midnight (hover to see other rain measurements)
** Current wind speed in m/s (hover to see current wind gust speed)